Aviation Digital Data Service (ADDS)

Output produced by METARs form (1632 UTC 16 June 2019)
found at http://www.aviationweather.gov/metar/data/
 
TAF MDST 161000Z 1612/1712 16012KT 9999 SCT021 
     PROB30 1620/1700 6000 TSRA FEW016CB BKN018 BKN070
       
TAF MDPP 161000Z 1612/1712 00000KT 9999 FEW016 
     BECMG 1613/1615 09010KT
       
TAF MDLR 161000Z 1612/1712 00000KT 9999 SCT018 
     PROB40 1618/1700 8000 -RA SCT016 SCT070 
       
TAF MDSD 161000Z 1612/1712 00000KT 9999 FEW016CB SCT018 
     PROB30 1618/1700 7000 -RA FEW016CB SCT018 SCT070
       
TAF MDBH 161000Z 1612/1712 00000KT 9999 FEW018 SCT080 
     PROB30 1618/1701 7000-RA FEW016CB SCT070
       
TAF MDPC 161000Z 1612/1712 08010KT 9999 FEW018CB SCT020 
     PROB30 1614/1620 8000 -RA SCT016 SCT070